Date,TemperatureHighF,TemperatureAvgF,TemperatureLowF,DewpointHighF,DewpointAvgF,DewpointLowF,HumidityHigh,HumidityAvg,HumidityLow,PressureMaxIn,PressureMinIn,WindSpeedMaxMPH,WindSpeedAvgMPH,GustSpeedMaxMPH,PrecipitationSumIn
2013-1-1,63,53,45,61,52,39,100,97,75,0.00,40.00,7,3,11,0.01
2013-1-2,65,52,42,61,50,26,100,92,53,0.00,40.00,7,3,11,0.01
2013-1-3,66,55,45,61,42,8,100,71,17,0.00,40.00,6,3,12,0.00
2013-1-4,69,57,45,62,36,3,98,54,12,0.00,40.00,22,7,37,0.00
2013-1-5,69,54,46,58,50,37,100,87,31,0.00,40.00,11,5,35,0.00
2013-1-6,70,58,47,58,41,11,99,61,16,0.00,40.00,22,11,35,0.00
2013-1-7,64,55,48,57,51,39,100,87,57,0.00,40.00,19,7,30,0.00
2013-1-8,66,55,44,60,46,31,99,74,44,0.00,40.00,11,4,26,0.00
2013-1-9,64,55,45,59,45,33,99,72,46,0.00,40.00,10,3,20,0.00
2013-1-10,66,51,45,57,47,27,99,86,43,0.00,40.00,5,3,19,0.00
2013-1-11,65,54,46,52,42,29,99,65,41,0.00,40.00,7,4,15,0.00
2013-1-12,66,55,48,60,47,37,99,75,40,0.00,40.00,11,7,24,0.00
2013-1-13,70,58,52,60,52,42,99,81,52,0.00,40.00,12,8,21,0.00
2013-1-14,70,58,49,59,48,42,99,72,38,0.00,40.00,12,7,22,0.00
2013-1-15,66,56,49,64,54,42,100,93,66,0.00,40.00,7,3,11,0.02
2013-1-16,69,57,48,55,50,47,99,80,54,0.00,40.00,7,4,14,0.01
2013-1-17,65,54,46,50,37,4,99,58,15,0.00,40.00,9,5,15,0.01
2013-1-18,69,56,44,55,33,13,87,44,23,0.00,40.00,12,6,23,0.00
2013-1-19,64,54,41,51,30,-17,87,49,5,0.00,40.00,12,7,22,0.00
2013-1-20,64,55,49,58,18,-27,98,39,3,0.00,40.00,9,4,16,0.00
2013-1-21,72,58,46,60,37,16,99,49,22,0.00,40.00,6,3,15,0.00
2013-1-22,68,54,42,61,45,24,100,76,33,0.00,40.00,6,2,15,0.00
2013-1-23,67,54,44,60,48,22,99,83,27,0.00,40.00,8,3,15,0.00
2013-1-24,63,52,43,58,47,31,99,86,53,0.00,40.00,14,3,31,0.00
2013-1-25,65,53,45,59,49,22,99,87,39,0.00,40.00,6,4,20,0.00
2013-1-26,65,55,47,57,34,-4,99,56,9,0.00,40.00,9,5,15,0.00
2013-1-27,69,58,48,58,33,-2,99,47,9,0.00,40.00,11,5,20,0.00
2013-1-28,66,54,42,54,42,26,90,64,29,0.00,40.00,9,4,20,0.00
2013-1-29,63,56,51,59,53,45,99,90,70,0.00,40.00,14,6,24,0.00
2013-1-30,66,56,51,58,54,51,100,93,58,0.00,40.00,11,6,21,0.51
2013-1-31,63,54,47,58,53,46,100,96,74,0.00,40.00,10,3,14,0.16
2013-2-1,63,54,48,61,50,27,100,86,38,0.00,40.00,10,5,16,0.01
2013-2-2,72,59,50,49,28,-7,74,39,4,0.00,40.00,15,7,31,0.00
2013-2-3,68,58,49,56,37,22,75,47,22,0.00,40.00,8,5,15,0.00
2013-2-4,64,53,44,59,48,28,100,86,32,0.00,40.00,10,3,19,0.00
2013-2-5,61,50,44,54,48,39,100,91,63,0.00,40.00,8,4,15,0.00
2013-2-6,64,52,43,57,49,42,99,89,58,0.00,40.00,6,3,20,0.00
2013-2-7,67,53,48,59,49,39,99,85,54,0.00,40.00,10,4,18,0.00
2013-2-8,61,54,48,59,50,36,100,85,59,0.00,40.00,8,4,12,0.00
2013-2-9,62,54,46,59,50,21,99,87,35,0.00,40.00,7,3,12,0.00
2013-2-10,66,55,47,59,48,29,99,80,45,0.00,40.00,10,3,15,0.00
2013-2-11,64,53,46,60,49,38,99,87,48,0.00,40.00,7,4,14,0.01
2013-2-12,61,50,42,58,46,26,100,89,42,0.00,40.00,8,4,14,0.01
2013-2-13,60,50,41,56,46,28,100,90,55,0.00,40.00,7,3,14,0.00
2013-2-14,60,49,41,56,46,25,99,91,50,0.00,40.00,12,4,18,0.00
2013-2-15,67,55,41,52,38,7,99,57,16,0.00,40.00,20,9,35,0.00
2013-2-16,61,52,46,57,48,40,99,89,58,0.00,40.00,8,4,24,0.00
2013-2-17,63,53,45,54,40,13,99,68,23,0.00,40.00,18,6,32,0.00
2013-2-18,58,50,43,56,46,36,99,88,48,0.00,40.00,21,5,39,0.00
2013-2-19,62,51,40,57,47,24,99,86,48,0.00,40.00,18,6,32,0.00
2013-2-20,65,54,46,56,44,30,99,70,37,0.00,40.00,17,7,34,0.00
2013-2-21,66,56,50,57,40,25,99,59,26,0.00,40.00,14,6,24,0.00
2013-2-22,60,55,50,56,48,41,99,78,63,0.00,40.00,19,7,33,0.95
2013-2-23,61,52,46,56,50,44,99,93,66,0.00,40.00,7,2,18,0.83
2013-2-24,57,50,45,56,50,45,99,98,84,0.00,40.00,7,3,14,0.94
2013-2-25,63,52,44,59,48,38,99,89,61,0.00,40.00,9,3,21,0.01
2013-2-26,62,51,46,58,50,44,100,95,61,0.00,40.00,5,3,12,0.01
2013-2-27,61,51,42,57,48,40,100,90,56,0.00,40.00,7,4,13,0.00
2013-2-28,61,51,43,59,47,32,100,87,55,0.00,40.00,7,4,15,0.00
2013-3-1,60,49,41,57,47,29,100,93,63,0.00,40.00,8,4,19,0.00
2013-3-2,61,50,41,57,48,36,100,93,78,0.00,40.00,10,5,17,0.00
2013-3-3,65,55,43,58,26,-16,99,46,4,0.00,40.00,10,5,20,0.00
2013-3-4,66,55,44,57,31,6,88,47,13,0.00,40.00,9,5,16,0.00
2013-3-5,65,52,41,56,42,19,100,70,38,0.00,40.00,9,4,20,0.00
2013-3-6,61,51,41,57,50,40,100,94,72,0.00,40.00,6,3,14,0.00
2013-3-7,59,50,41,57,46,28,100,88,58,0.00,40.00,7,3,15,0.00
2013-3-8,64,52,43,56,44,27,100,78,25,0.00,40.00,12,5,22,0.00
2013-3-9,64,53,44,54,46,34,97,77,46,0.00,40.00,12,6,22,0.00
2013-3-10,66,56,45,46,42,31,94,61,41,0.00,40.00,12,7,21,0.00
2013-3-11,64,54,45,60,48,35,99,81,61,0.00,40.00,12,6,19,0.00
2013-3-12,61,54,50,56,49,41,99,84,66,0.00,40.00,8,4,17,0.00
2013-3-13,64,54,46,59,49,34,99,82,47,0.00,40.00,8,5,16,0.00
2013-3-14,64,53,45,56,50,44,99,90,58,0.00,40.00,8,4,15,0.00
2013-3-15,62,54,48,60,52,46,100,96,74,0.00,40.00,8,3,16,0.05
2013-3-16,61,54,48,54,42,22,99,69,26,0.00,40.00,8,5,18,0.01
2013-3-17,57,52,49,55,49,38,99,89,54,0.00,40.00,9,3,16,0.02
2013-3-18,65,55,48,55,49,38,98,81,55,0.00,40.00,9,4,19,0.02
2013-3-19,64,54,44,58,50,43,99,88,62,0.00,40.00,7,4,15,0.00
2013-3-20,64,56,51,59,50,40,98,82,44,0.00,40.00,16,9,28,0.00
2013-3-21,68,58,49,59,44,29,98,61,35,0.00,40.00,19,9,38,0.00
2013-3-22,64,54,47,58,44,26,100,74,36,0.00,40.00,12,4,18,0.00
2013-3-23,61,54,48,59,54,48,100,99,91,0.00,40.00,5,2,10,0.04
2013-3-24,68,55,50,59,52,42,100,91,41,0.00,40.00,16,4,25,0.01
2013-3-25,64,55,48,59,54,47,100,97,81,0.00,40.00,6,3,10,0.00
2013-3-26,64,55,49,63,53,42,100,94,73,0.00,40.00,7,4,13,0.03
2013-3-27,65,54,47,60,51,45,100,89,67,0.00,40.00,9,3,12,0.03
2013-3-28,61,55,48,54,50,45,98,85,67,0.00,40.00,8,4,13,0.01
2013-3-29,61,52,45,55,47,35,100,86,59,0.00,40.00,5,2,12,0.19
2013-3-30,65,54,46,53,48,-100,100,83,62,0.00,40.00,11,4,21,0.20
2013-3-31,63,54,44,50,41,11,95,64,26,0.00,40.00,10,6,20,0.01
2013-4-1,66,54,44,43,18,-9,83,29,7,0.00,40.00,11,7,21,0.00
2013-4-2,62,52,41,48,38,22,94,61,33,0.00,40.00,9,5,20,0.00
2013-4-3,60,50,41,49,42,29,91,76,51,0.00,40.00,7,4,15,0.00
2013-4-4,66,54,43,49,44,37,92,70,48,0.00,40.00,9,4,16,0.00
2013-4-5,66,56,45,54,44,32,95,66,34,0.00,40.00,15,6,26,0.00
2013-4-6,73,64,57,53,35,27,59,34,27,0.00,40.00,14,10,24,0.00
2013-4-7,68,60,49,54,41,23,99,52,26,0.00,40.00,10,5,20,0.00
2013-4-8,60,53,46,54,47,36,98,81,58,0.00,40.00,7,3,13,0.00
2013-4-9,70,56,46,54,46,28,98,73,37,0.00,40.00,8,5,19,0.00
2013-4-10,71,60,46,56,45,18,97,62,24,0.00,40.00,11,3,19,0.00
2013-4-11,74,62,49,57,46,19,99,62,17,0.00,40.00,10,4,19,0.00
2013-4-12,69,59,51,55,42,15,97,59,17,0.00,40.00,9,4,17,0.00
2013-4-13,73,60,48,52,44,32,95,62,22,0.00,40.00,11,5,21,0.00
2013-4-14,72,61,51,55,43,29,80,51,36,0.00,40.00,8,4,15,0.00
2013-4-15,69,60,51,55,40,23,86,50,24,0.00,40.00,10,4,18,0.00
2013-4-16,71,60,51,56,44,23,97,57,28,0.00,40.00,7,3,12,0.00
2013-4-17,66,58,52,57,46,26,100,70,32,0.00,40.00,8,4,13,0.01
2013-4-18,62,54,46,55,51,38,100,92,61,0.00,40.00,7,2,11,0.02
2013-4-19,66,55,46,56,46,22,100,74,29,0.00,40.00,7,3,14,0.05
2013-4-20,69,57,46,55,46,27,92,69,35,0.00,40.00,7,4,16,0.01
2013-4-21,69,58,47,57,44,25,98,60,31,0.00,40.00,11,4,20,0.00
2013-4-22,70,61,54,55,38,22,96,47,22,0.00,40.00,9,5,17,0.00
2013-4-23,72,60,50,55,41,23,98,54,24,0.00,40.00,9,4,15,0.00
2013-4-24,69,60,50,59,44,23,100,61,23,0.00,40.00,10,5,20,0.00
2013-4-25,67,56,47,57,51,42,100,85,57,0.00,40.00,7,2,13,0.00
2013-4-26,65,55,45,55,51,39,100,87,69,0.00,40.00,6,3,13,0.01
2013-4-27,66,56,46,56,49,28,100,78,46,0.00,40.00,8,4,13,0.01
2013-4-28,67,56,46,56,46,22,100,71,36,0.00,40.00,10,3,20,0.00
2013-4-29,64,55,45,56,51,43,100,88,63,0.00,40.00,8,2,16,0.00
2013-4-30,65,56,50,58,52,43,100,88,57,0.00,40.00,7,3,13,0.05
2013-5-1,62,55,46,57,53,46,100,94,74,0.00,40.00,5,2,10,0.07
2013-5-2,67,56,48,56,52,47,100,88,65,0.00,40.00,8,3,13,0.01
2013-5-3,58,54,48,57,52,44,100,96,81,0.00,40.00,7,3,12,0.05
2013-5-4,64,54,47,57,52,44,100,94,67,0.00,40.00,7,3,11,0.03
2013-5-5,63,54,46,56,51,43,100,89,73,0.00,40.00,7,3,12,0.01
2013-5-6,67,57,49,57,47,36,90,70,53,0.00,40.00,7,3,15,0.00
2013-5-7,68,59,49,57,50,39,99,72,49,0.00,40.00,11,4,18,0.00
2013-5-8,70,60,48,56,48,35,92,65,42,0.00,40.00,12,6,25,0.00
2013-5-9,70,60,54,64,57,47,100,89,69,0.00,40.00,7,4,16,0.69
2013-5-10,71,59,52,63,56,-100,100,95,67,0.00,40.00,5,2,10,0.15
2013-5-11,70,60,52,59,53,-100,100,83,50,0.00,40.00,7,3,13,0.01
2013-5-12,65,58,51,63,55,44,100,90,68,0.00,40.00,7,3,14,0.33
2013-5-13,62,57,50,60,56,49,100,98,89,0.00,40.00,6,2,11,0.17
2013-5-14,64,57,50,60,54,39,100,90,64,0.00,40.00,6,3,10,0.10
2013-5-15,62,56,47,59,53,41,100,92,66,0.00,40.00,6,3,10,0.02
2013-5-16,63,51,48,56,34,-100,100,88,64,0.00,40.00,7,4,12,0.01
2013-5-17,63,54,46,57,48,-100,100,86,57,0.00,40.00,8,4,14,0.00
2013-5-18,62,55,46,56,52,44,100,90,69,0.00,40.00,7,3,14,0.00
2013-5-19,63,55,48,56,52,47,100,91,69,0.00,40.00,7,3,13,0.13
2013-5-20,66,56,47,55,48,37,92,76,63,0.00,40.00,6,4,13,0.03
2013-5-21,66,57,48,57,50,42,90,78,57,0.00,40.00,8,5,15,0.00
2013-5-22,68,60,52,58,51,36,100,75,36,0.00,40.00,8,5,14,0.00
2013-5-23,69,59,51,61,56,49,100,90,60,0.00,40.00,6,3,13,0.00
2013-5-24,66,57,50,60,54,44,100,88,62,0.00,40.00,5,3,13,0.14
2013-5-25,65,56,50,59,55,50,100,97,78,0.00,40.00,6,2,14,0.01
2013-5-26,62,56,51,59,54,43,100,94,65,0.00,40.00,9,2,19,0.87
2013-5-27,64,56,50,58,52,45,100,87,63,0.00,40.00,11,3,18,0.64
2013-5-28,64,57,51,59,53,44,100,86,64,0.00,40.00,9,4,15,0.09
2013-5-29,67,59,52,60,55,46,100,88,66,0.00,40.00,6,2,10,0.00
2013-5-30,71,61,52,62,53,37,100,78,36,0.00,40.00,7,3,12,0.00
2013-5-31,73,64,53,61,52,36,100,68,36,0.00,40.00,10,4,17,0.00
2013-6-1,70,60,51,63,56,41,100,87,66,0.00,40.00,9,3,18,0.00
2013-6-2,79,66,53,62,38,12,100,42,13,0.00,40.00,14,6,30,0.00
2013-6-3,68,61,50,59,44,12,100,63,13,0.00,40.00,11,5,20,0.00
2013-6-4,76,61,50,58,46,17,100,66,15,0.00,40.00,13,5,29,0.00
2013-6-5,66,57,50,60,53,45,100,87,66,0.00,40.00,6,3,13,0.00
2013-6-6,62,55,50,59,54,44,100,94,75,0.00,40.00,6,3,13,0.03
2013-6-7,63,55,49,58,52,44,100,90,57,0.00,40.00,7,3,15,0.03
2013-6-8,65,56,48,59,54,45,100,91,71,0.00,40.00,5,2,12,0.00
2013-6-9,66,58,50,61,54,42,100,88,66,0.00,40.00,6,3,13,0.00
2013-6-10,73,64,53,61,49,22,97,62,18,0.00,40.00,11,3,16,0.00
2013-6-11,74,65,52,61,45,22,100,53,18,0.00,40.00,11,3,20,0.00
2013-6-12,68,56,50,58,50,33,100,83,46,0.00,40.00,6,3,13,0.00
2013-6-13,69,58,50,59,53,44,100,86,52,0.00,40.00,12,4,23,0.00
2013-6-14,66,56,49,58,50,29,100,80,40,0.00,40.00,8,3,24,0.00
2013-6-15,65,57,48,58,53,43,100,88,63,0.00,40.00,7,3,13,0.04
2013-6-16,63,57,48,59,54,47,100,93,71,0.00,40.00,5,2,11,0.04
2013-6-17,65,58,50,59,54,47,100,88,69,0.00,40.00,6,3,12,0.00
2013-6-18,66,58,49,60,55,48,100,92,70,0.00,40.00,6,2,13,0.00
2013-6-19,64,56,50,59,54,47,100,93,67,0.00,40.00,6,3,15,0.03